This is the latest recevied weather packets stored in our database for station/object OK1HOL-13. If no packets are shown the sender has not sent any weather packets the latest 10 day(s).
| Time | Temp. | Humidity | Pressure | Rain* | Wind** | Luminosity | Snow |
|---|---|---|---|---|---|---|---|
| 1777813553 | 29.44° C | 16% | 1013.3 hPa | - | - | 431 W/m² | - |
| 1777812954 | 29.44° C | 15% | 1013.4 hPa | - | - | 431 W/m² | - |
| 1777812353 | 28.33° C | 16% | 1013.7 hPa | - | - | 431 W/m² | - |
| 1777811754 | 28.33° C | 15% | 1013.8 hPa | - | - | 431 W/m² | - |
| 1777811154 | 28.33° C | 15% | 1013.9 hPa | - | - | 431 W/m² | - |
| 1777810554 | 28.33° C | 16% | 1014 hPa | - | - | 431 W/m² | - |
| 1777809953 | 28.89° C | 17% | 1014 hPa | - | - | 431 W/m² | - |
| 1777809354 | 28.89° C | 17% | 1014.2 hPa | - | - | 431 W/m² | - |
| 1777808757 | 27.22° C | 18% | 1014.4 hPa | - | - | 431 W/m² | - |
| 1777808154 | 27.78° C | 18% | 1014.6 hPa | - | - | 431 W/m² | - |
| 1777807554 | 26.67° C | 18% | 1014.6 hPa | - | - | 431 W/m² | - |
| 1777806954 | 28.33° C | 18% | 1014.8 hPa | - | - | 431 W/m² | - |
| 1777806354 | 27.22° C | 18% | 1014.9 hPa | - | - | 431 W/m² | - |
| 1777805754 | 27.78° C | 17% | 1015 hPa | - | - | 431 W/m² | - |
| 1777805154 | 26.67° C | 18% | 1015.2 hPa | - | - | 431 W/m² | - |
| 1777804554 | 27.22° C | 17% | 1015.3 hPa | - | - | 431 W/m² | - |
| 1777803953 | 27.22° C | 18% | 1015.3 hPa | - | - | 431 W/m² | - |
| 1777803354 | 25° C | 20% | 1015.7 hPa | - | - | 431 W/m² | - |
| 1777802754 | 25.56° C | 18% | 1015.7 hPa | - | - | 431 W/m² | - |
| 1777802155 | 26.67° C | 19% | 1015.7 hPa | - | - | 431 W/m² | - |
| 1777801554 | 25.56° C | 20% | 1015.9 hPa | - | - | 431 W/m² | - |
| 1777800953 | 26.11° C | 20% | 1015.9 hPa | - | - | 431 W/m² | - |
| 1777800354 | 25° C | 22% | 1016.2 hPa | - | - | 431 W/m² | - |
| 1777799754 | 25° C | 24% | 1016.2 hPa | - | - | 431 W/m² | - |
| 1777799154 | 25° C | 25% | 1016.3 hPa | - | - | 431 W/m² | - |
* Rain since midnight (hover to see other rain measurements)
** Current wind speed in m/s (hover to see current wind gust speed)